Time;durP1;ratioP1;P1;durP2;ratioP2;P2;SDS_P1;SDS_P2;PMS_P1;PMS_P2;Temp;Humidity;BMP_temperature;BMP_pressure;BME280_temperature;BME280_humidity;BME280_pressure;Samples;Min_cycle;Max_cycle;Signal;HPM_P1;HPM_P2
2022/07/02 00:00:45;;;;;;;0.10;0.10;;;12.30;99.90;;;;;;4976718;28;20056;-81
2022/07/02 00:03:14;;;;;;;0.08;0.08;;;11.70;99.90;;;;;;4977836;28;20050;-82
2022/07/02 00:05:54;;;;;;;0.00;0.00;;;11.70;99.90;;;;;;4993716;28;20503;-82
2022/07/02 00:08:22;;;;;;;0.30;0.30;;;11.70;99.90;;;;;;4993605;28;20084;-82
2022/07/02 00:10:50;;;;;;;0.00;0.00;;;11.70;99.90;;;;;;4978121;28;20463;-82
2022/07/02 00:13:16;;;;;;;0.00;0.00;;;11.70;99.90;;;;;;4977300;28;20125;-82
2022/07/02 00:15:43;;;;;;;0.20;0.20;;;11.60;99.90;;;;;;4993452;28;20046;-82
2022/07/02 00:18:10;;;;;;;0.10;0.10;;;11.70;99.90;;;;;;5010058;28;20048;-82
2022/07/02 00:20:37;;;;;;;2.95;1.05;;;11.60;99.90;;;;;;5010197;28;20125;-81
2022/07/02 00:23:03;;;;;;;0.10;0.10;;;11.60;99.90;;;;;;5003063;28;20532;-81
2022/07/02 00:25:36;;;;;;;0.10;0.10;;;11.60;99.90;;;;;;4977541;28;20073;-81
2022/07/02 00:28:03;;;;;;;0.10;0.10;;;11.50;99.90;;;;;;4993942;28;20113;-81
2022/07/02 00:30:29;;;;;;;0.20;0.20;;;11.60;99.90;;;;;;4993474;28;20042;-81
2022/07/02 00:32:54;;;;;;;0.00;0.00;;;11.50;99.90;;;;;;4993524;28;20096;-81
2022/07/02 00:35:21;;;;;;;0.00;0.00;;;11.50;99.90;;;;;;4977416;28;20446;-81
2022/07/02 00:37:48;;;;;;;0.10;0.10;;;11.40;99.90;;;;;;5006803;28;20049;-82
2022/07/02 00:40:14;;;;;;;0.10;0.10;;;11.50;99.90;;;;;;4977084;28;20092;-82
2022/07/02 00:42:40;;;;;;;0.10;0.10;;;12.10;99.90;;;;;;4993600;28;20065;-83
2022/07/02 00:45:06;;;;;;;0.20;0.20;;;11.50;99.90;;;;;;4993043;28;20069;-82
2022/07/02 00:47:33;;;;;;;0.00;0.00;;;11.50;99.90;;;;;;4993364;28;20042;-82
2022/07/02 00:50:05;;;;;;;0.10;0.10;;;11.50;99.90;;;;;;4977291;28;20075;-82
2022/07/02 00:52:31;;;;;;;0.10;0.10;;;11.50;99.90;;;;;;4977163;28;20469;-82
2022/07/02 00:54:57;;;;;;;0.10;0.10;;;11.50;99.90;;;;;;4993217;28;20125;-83
2022/07/02 00:57:23;;;;;;;0.10;0.10;;;11.50;99.90;;;;;;4993021;28;20054;-83
2022/07/02 00:59:48;;;;;;;0.00;0.00;;;11.40;99.90;;;;;;4992046;28;20385;-83
2022/07/02 01:02:16;;;;;;;0.00;0.00;;;11.50;99.90;;;;;;4992475;28;20049;-83
2022/07/02 01:04:43;;;;;;;0.20;0.20;;;11.50;99.90;;;;;;5009410;28;20046;-82
2022/07/02 01:07:12;;;;;;;0.10;0.10;;;11.50;99.90;;;;;;5009232;28;20046;-83
2022/07/02 01:12:26;;;;;;;0.10;0.10;;;11.50;99.90;;;;;;4993269;28;20061;-82
2022/07/02 01:14:53;;;;;;;0.20;0.20;;;11.40;99.90;;;;;;4960880;28;20050;-82
2022/07/02 01:17:19;;;;;;;0.15;0.15;;;11.60;99.90;;;;;;4993126;28;20546;-82
2022/07/02 01:19:45;;;;;;;0.25;0.25;;;11.50;99.90;;;;;;4993054;28;20481;-82
2022/07/02 01:22:18;;;;;;;0.10;0.10;;;11.40;99.90;;;;;;4992561;28;20044;-82
2022/07/02 01:24:49;;;;;;;0.00;0.00;;;11.40;99.90;;;;;;4992775;28;20049;-82
2022/07/02 01:27:16;;;;;;;0.20;0.20;;;11.40;99.90;;;;;;4992892;28;20479;-81
2022/07/02 01:29:43;;;;;;;0.20;0.20;;;11.40;99.90;;;;;;4976825;28;20070;-81
2022/07/02 01:32:09;;;;;;;0.05;0.05;;;11.50;99.90;;;;;;4992947;28;20042;-81
2022/07/02 01:35:01;;;;;;;0.52;0.52;;;11.50;99.90;;;;;;4993033;28;20105;-81
2022/07/02 01:37:26;;;;;;;0.10;0.10;;;11.60;99.90;;;;;;4992730;28;20051;-81
2022/07/02 01:39:52;;;;;;;0.10;0.10;;;11.60;99.90;;;;;;4976751;28;20057;-81
2022/07/02 01:42:18;;;;;;;0.13;0.13;;;11.60;99.90;;;;;;4976284;28;20042;-81
2022/07/02 01:44:45;;;;;;;0.10;0.10;;;11.60;99.90;;;;;;4992544;28;20456;-83
2022/07/02 01:47:12;;;;;;;0.00;0.00;;;11.60;99.90;;;;;;4976308;28;20052;-82
2022/07/02 01:49:38;;;;;;;0.20;0.20;;;11.60;99.90;;;;;;4993184;28;20614;-83
2022/07/02 01:52:05;;;;;;;0.30;0.30;;;11.60;99.90;;;;;;4981868;28;20049;-82
2022/07/02 01:54:31;;;;;;;0.32;0.32;;;11.60;99.90;;;;;;4992966;28;20427;-82
2022/07/02 01:56:59;;;;;;;0.17;0.17;;;11.50;99.90;;;;;;4992565;28;20050;-82
2022/07/02 01:59:24;;;;;;;0.10;0.10;;;11.50;99.90;;;;;;4975901;28;20050;-81
2022/07/02 02:01:50;;;;;;;0.00;0.00;;;11.40;99.90;;;;;;4992055;28;20042;-81
2022/07/02 02:04:16;;;;;;;0.35;0.20;;;11.40;99.90;;;;;;4976909;28;20046;-81
2022/07/02 02:06:42;;;;;;;0.00;0.00;;;11.40;99.90;;;;;;4992807;28;20503;-81
2022/07/02 02:09:08;;;;;;;0.10;0.10;;;11.40;99.90;;;;;;4992968;28;20033;-81
2022/07/02 02:11:33;;;;;;;0.10;0.10;;;11.40;99.90;;;;;;4996133;28;20504;-81
2022/07/02 02:13:59;;;;;;;0.45;0.25;;;11.30;99.90;;;;;;4995339;28;20473;-81
2022/07/02 02:16:26;;;;;;;0.28;0.25;;;11.30;99.90;;;;;;4995759;28;20374;-81
2022/07/02 02:18:53;;;;;;;0.10;0.10;;;11.20;99.90;;;;;;4979859;28;20106;-81
2022/07/02 02:21:19;;;;;;;0.10;0.10;;;11.20;99.90;;;;;;4979714;28;20101;-81
2022/07/02 02:23:45;;;;;;;0.10;0.10;;;11.10;99.90;;;;;;4995113;28;20042;-80
2022/07/02 02:26:11;;;;;;;0.80;0.55;;;11.10;99.90;;;;;;4996070;28;20046;-81
2022/07/02 02:28:36;;;;;;;0.13;0.13;;;11.10;99.90;;;;;;4995591;28;20045;-81
2022/07/02 02:31:03;;;;;;;0.05;0.05;;;11.10;99.90;;;;;;4995515;28;20149;-80
2022/07/02 02:33:29;;;;;;;0.10;0.10;;;11.20;99.90;;;;;;4995647;28;20416;-81
2022/07/02 02:35:54;;;;;;;0.00;0.00;;;11.10;99.90;;;;;;4979194;28;20129;-81
2022/07/02 02:38:20;;;;;;;0.10;0.10;;;11.10;99.90;;;;;;4977148;28;20042;-81
2022/07/02 02:40:49;;;;;;;0.10;0.10;;;11.50;99.90;;;;;;4994622;28;20069;-81
2022/07/02 02:43:15;;;;;;;0.10;0.10;;;11.10;99.90;;;;;;4994501;28;20400;-81
2022/07/02 02:45:40;;;;;;;0.10;0.10;;;11.10;99.90;;;;;;4994708;28;20050;-81
2022/07/02 02:48:06;;;;;;;0.30;0.30;;;11.20;99.90;;;;;;4995262;28;20042;-81
2022/07/02 02:50:32;;;;;;;0.28;0.28;;;11.20;99.90;;;;;;4995155;28;20042;-82
2022/07/02 02:52:57;;;;;;;0.17;0.13;;;11.20;99.90;;;;;;4979183;28;20045;-82
2022/07/02 02:55:23;;;;;;;0.10;0.10;;;11.20;99.90;;;;;;4974312;28;20065;-82
2022/07/02 02:57:49;;;;;;;1.40;0.57;;;11.10;99.90;;;;;;4975754;28;20039;-82
2022/07/02 03:00:14;;;;;;;0.10;0.10;;;11.10;99.90;;;;;;4995595;28;20038;-82
2022/07/02 03:02:40;;;;;;;0.15;0.15;;;11.00;99.90;;;;;;4995336;28;20042;-82
2022/07/02 03:05:06;;;;;;;0.03;0.03;;;11.00;99.90;;;;;;4994892;28;20038;-82
2022/07/02 03:07:32;;;;;;;0.10;0.10;;;10.90;99.90;;;;;;4995260;28;20045;-82
2022/07/02 03:09:57;;;;;;;0.10;0.10;;;10.90;99.90;;;;;;5010817;28;20046;-82
2022/07/02 03:12:23;;;;;;;0.47;0.47;;;10.80;99.90;;;;;;4978534;28;20121;-82
2022/07/02 03:14:49;;;;;;;0.20;0.20;;;10.80;99.90;;;;;;4994415;28;20050;-82
2022/07/02 03:17:15;;;;;;;0.00;0.00;;;10.80;99.90;;;;;;4994610;28;20049;-82
2022/07/02 03:19:41;;;;;;;0.35;0.35;;;10.80;99.90;;;;;;4994212;28;20042;-82
2022/07/02 03:22:06;;;;;;;0.00;0.00;;;10.80;99.90;;;;;;4994456;28;20034;-82
2022/07/02 03:24:32;;;;;;;0.63;0.32;;;10.80;99.90;;;;;;4994099;28;20042;-81
2022/07/02 03:26:57;;;;;;;0.35;0.30;;;10.90;99.90;;;;;;4964890;28;20074;-81
2022/07/02 03:29:23;;;;;;;0.40;0.40;;;10.80;99.90;;;;;;4979935;28;20489;-81
2022/07/02 03:31:52;;;;;;;0.00;0.00;;;10.80;99.90;;;;;;4994361;28;20038;-81
2022/07/02 03:34:17;;;;;;;0.10;0.10;;;10.90;99.90;;;;;;4976740;28;20047;-81
2022/07/02 03:36:43;;;;;;;0.15;0.15;;;11.10;99.90;;;;;;4978014;28;20098;-81
2022/07/02 03:39:09;;;;;;;1.13;0.60;;;11.00;99.90;;;;;;4991447;28;20487;-81
2022/07/02 03:41:35;;;;;;;0.10;0.10;;;11.10;99.90;;;;;;4994027;28;20038;-82
2022/07/02 03:44:00;;;;;;;0.22;0.22;;;11.10;99.90;;;;;;5017486;22;20140;-81
2022/07/02 03:46:26;;;;;;;0.30;0.30;;;11.20;99.90;;;;;;5033886;28;20045;-81
2022/07/02 03:48:52;;;;;;;0.00;0.00;;;11.20;99.90;;;;;;4989428;28;20037;-81
2022/07/02 03:51:18;;;;;;;0.10;0.10;;;11.30;99.90;;;;;;5027988;28;20044;-82
2022/07/02 03:53:44;;;;;;;0.30;0.30;;;11.40;99.90;;;;;;5000363;28;20053;-81
2022/07/02 03:56:10;;;;;;;5.07;0.30;;;11.50;99.90;;;;;;5034211;28;20136;-84
2022/07/02 03:58:35;;;;;;;0.40;0.40;;;11.60;99.90;;;;;;5016944;28;20048;-83
2022/07/02 04:01:01;;;;;;;0.10;0.10;;;11.60;99.90;;;;;;5033753;28;20044;-83
2022/07/02 04:03:27;;;;;;;0.85;0.75;;;11.70;99.90;;;;;;4992219;28;20128;-83
2022/07/02 04:05:52;;;;;;;0.65;0.65;;;11.70;99.90;;;;;;5033861;28;20045;-83
2022/07/02 04:08:18;;;;;;;0.10;0.10;;;11.80;99.90;;;;;;5019304;28;20049;-83
2022/07/02 04:10:44;;;;;;;0.73;0.20;;;11.90;99.90;;;;;;5034961;28;20530;-83
2022/07/02 04:13:11;;;;;;;0.63;0.63;;;12.00;99.90;;;;;;5018311;28;20091;-83
2022/07/02 04:15:36;;;;;;;0.38;0.35;;;12.10;99.90;;;;;;5040434;28;20048;-83
2022/07/02 04:18:02;;;;;;;0.03;0.03;;;12.10;99.90;;;;;;5036433;28;20380;-83
2022/07/02 04:20:28;;;;;;;0.10;0.10;;;12.20;99.90;;;;;;5003186;28;20108;-83
2022/07/02 04:22:54;;;;;;;12.73;0.63;;;12.20;99.90;;;;;;5019674;28;20048;-83
2022/07/02 04:25:19;;;;;;;0.15;0.15;;;12.30;99.90;;;;;;5019570;28;20136;-84
2022/07/02 04:27:45;;;;;;;0.10;0.10;;;12.30;99.90;;;;;;5035120;28;20040;-83
2022/07/02 04:30:11;;;;;;;0.22;0.20;;;12.40;99.90;;;;;;5019411;28;20112;-82
2022/07/02 04:32:37;;;;;;;0.10;0.10;;;12.50;99.90;;;;;;5019363;28;20107;-81
2022/07/02 04:35:03;;;;;;;0.80;0.52;;;12.50;99.90;;;;;;5019694;28;20049;-82
2022/07/02 04:37:29;;;;;;;0.30;0.30;;;12.50;99.90;;;;;;5025322;28;20041;-82
2022/07/02 04:39:55;;;;;;;0.10;0.10;;;12.70;99.90;;;;;;4984638;28;20045;-81
2022/07/02 04:42:21;;;;;;;0.45;0.45;;;12.80;99.90;;;;;;4999875;28;20481;-81
2022/07/02 04:44:46;;;;;;;0.10;0.10;;;12.90;99.90;;;;;;5006496;28;20076;-81
2022/07/02 04:47:12;;;;;;;0.60;0.60;;;13.00;99.90;;;;;;5035683;28;20033;-83
2022/07/02 04:49:38;;;;;;;0.00;0.00;;;13.00;99.90;;;;;;5033021;28;20433;-83
2022/07/02 04:52:04;;;;;;;0.10;0.10;;;13.10;99.90;;;;;;5028305;28;20434;-83
2022/07/02 04:54:30;;;;;;;0.20;0.20;;;13.20;99.90;;;;;;5005118;28;20435;-83
2022/07/02 04:56:55;;;;;;;0.17;0.17;;;13.30;99.90;;;;;;5036345;28;20123;-83
2022/07/02 04:59:21;;;;;;;0.30;0.30;;;13.40;99.90;;;;;;5018340;28;20048;-83
2022/07/02 05:01:47;;;;;;;0.20;0.20;;;13.40;99.90;;;;;;5033364;28;20037;-83
2022/07/02 05:04:12;;;;;;;1.60;0.40;;;13.50;99.90;;;;;;5035486;28;20045;-81
2022/07/02 05:06:38;;;;;;;0.00;0.00;;;13.60;99.90;;;;;;5035317;28;20120;-81
2022/07/02 05:09:04;;;;;;;0.10;0.10;;;13.70;99.90;;;;;;5001218;28;20056;-81
2022/07/02 05:11:30;;;;;;;0.20;0.20;;;13.70;99.90;;;;;;5035276;28;20471;-81
2022/07/02 05:13:56;;;;;;;1.02;0.73;;;13.90;99.90;;;;;;5033334;28;20049;-81
2022/07/02 05:16:22;;;;;;;0.90;0.63;;;14.00;99.90;;;;;;5033962;28;20108;-81
2022/07/02 05:18:47;;;;;;;0.43;0.30;;;14.10;99.90;;;;;;5034854;28;20052;-81
2022/07/02 05:21:14;;;;;;;0.40;0.35;;;14.30;99.90;;;;;;5002655;28;20072;-81
2022/07/02 05:23:39;;;;;;;0.30;0.30;;;14.40;99.90;;;;;;5019168;28;20472;-81
2022/07/02 05:26:05;;;;;;;3.15;0.85;;;14.50;99.90;;;;;;5019131;28;20044;-81
2022/07/02 05:28:31;;;;;;;0.75;0.40;;;14.70;99.90;;;;;;5018801;28;20037;-81
2022/07/02 05:30:57;;;;;;;0.20;0.20;;;15.30;99.90;;;;;;5018984;28;20124;-82
2022/07/02 05:33:22;;;;;;;0.10;0.10;;;16.70;99.90;;;;;;5019204;28;20072;-81
2022/07/02 05:35:48;;;;;;;0.47;0.47;;;17.60;99.90;;;;;;5035764;28;20502;-82
2022/07/02 05:38:14;;;;;;;0.20;0.20;;;18.90;99.90;;;;;;5018730;28;20049;-82
2022/07/02 05:40:39;;;;;;;0.10;0.10;;;20.20;99.90;;;;;;5012749;28;20126;-81
2022/07/02 05:43:05;;;;;;;0.32;0.32;;;20.20;99.90;;;;;;5015242;28;20083;-81
2022/07/02 05:45:31;;;;;;;0.60;0.57;;;21.10;99.90;;;;;;5018083;28;20476;-82
2022/07/02 05:47:56;;;;;;;0.10;0.10;;;21.40;99.90;;;;;;5003095;28;20049;-82
2022/07/02 05:50:22;;;;;;;0.30;0.30;;;21.90;99.90;;;;;;5031097;28;20480;-82
2022/07/02 05:52:48;;;;;;;2.38;0.38;;;22.70;99.90;;;;;;5038992;28;20077;-83
2022/07/02 05:55:14;;;;;;;0.25;0.20;;;22.70;99.90;;;;;;5022481;28;20045;-84
2022/07/02 05:57:40;;;;;;;0.17;0.17;;;23.10;99.90;;;;;;5039204;28;20033;-83
2022/07/02 06:00:08;;;;;;;0.20;0.20;;;23.50;99.90;;;;;;5038198;28;20045;-83
2022/07/02 06:02:34;;;;;;;0.35;0.30;;;23.80;99.90;;;;;;5038703;28;20395;-83
2022/07/02 06:07:38;;;;;;;0.32;0.20;;;24.00;99.90;;;;;;5038835;28;20369;-83
2022/07/02 06:07:45;;;;;;;0.10;0.10;;;24.30;99.90;;;;;;5039058;28;20183;-83
2022/07/02 06:10:18;;;;;;;0.32;0.32;;;24.60;99.90;;;;;;5038427;28;20471;-82
2022/07/02 06:12:48;;;;;;;0.32;0.32;;;25.00;99.90;;;;;;5038687;28;20049;-82
2022/07/02 06:15:16;;;;;;;0.25;0.25;;;25.30;99.70;;;;;;5011459;28;20041;-82
2022/07/02 06:17:41;;;;;;;0.10;0.10;;;25.30;98.70;;;;;;5038573;28;20045;-81
2022/07/02 06:20:08;;;;;;;0.05;0.05;;;25.20;97.50;;;;;;5038242;28;20045;-81
2022/07/02 06:22:34;;;;;;;0.30;0.30;;;25.30;98.60;;;;;;5021904;28;20853;-81
2022/07/02 06:24:59;;;;;;;0.20;0.20;;;25.50;98.10;;;;;;5019449;28;20468;-82
2022/07/02 06:27:25;;;;;;;0.38;0.38;;;25.70;96.90;;;;;;5038470;28;20089;-84
2022/07/02 06:29:51;;;;;;;0.20;0.20;;;25.90;96.50;;;;;;5022295;28;20436;-84
2022/07/02 06:32:16;;;;;;;0.40;0.40;;;26.10;95.90;;;;;;5038042;28;20047;-84
2022/07/02 06:34:46;;;;;;;0.30;0.30;;;25.90;96.20;;;;;;5038733;28;20131;-84
2022/07/02 06:37:15;;;;;;;0.70;0.35;;;26.00;95.40;;;;;;5021607;28;20041;-85
2022/07/02 06:39:40;;;;;;;0.20;0.20;;;26.30;95.50;;;;;;5041347;28;20432;-84
2022/07/02 06:42:26;;;;;;;0.25;0.25;;;26.60;95.10;;;;;;5042663;28;20090;-84
2022/07/02 06:44:57;;;;;;;0.08;0.08;;;27.10;95.50;;;;;;5055009;28;20574;-85
2022/07/02 06:47:23;;;;;;;0.10;0.10;;;27.60;95.70;;;;;;5054882;28;20041;-85
2022/07/02 06:49:50;;;;;;;0.77;0.40;;;27.70;93.50;;;;;;5045745;28;20036;-85
2022/07/02 06:52:17;;;;;;;0.52;0.35;;;27.80;93.10;;;;;;5005753;28;20127;-85
2022/07/02 06:54:43;;;;;;;0.10;0.10;;;27.60;92.80;;;;;;5037851;28;20549;-85
2022/07/02 06:57:10;;;;;;;0.25;0.22;;;27.40;92.60;;;;;;5004749;28;20041;-85
2022/07/02 06:59:36;;;;;;;0.20;0.20;;;27.20;92.50;;;;;;5037874;28;20467;-82
2022/07/02 07:02:03;;;;;;;0.17;0.17;;;27.30;93.40;;;;;;5015144;28;20060;-82
2022/07/02 07:04:28;;;;;;;0.73;0.47;;;27.30;92.80;;;;;;5033777;28;20048;-82
2022/07/02 07:06:55;;;;;;;0.10;0.10;;;27.30;92.20;;;;;;5033180;28;20041;-82
2022/07/02 07:09:24;;;;;;;0.40;0.40;;;27.10;93.10;;;;;;5001619;28;20892;-81
2022/07/02 07:11:51;;;;;;;0.40;0.40;;;27.00;92.60;;;;;;5033092;28;20390;-82
2022/07/02 07:14:17;;;;;;;0.20;0.20;;;27.30;92.40;;;;;;5035899;28;20060;-82
2022/07/02 07:16:43;;;;;;;0.10;0.10;;;27.30;92.10;;;;;;5043373;28;20047;-84
2022/07/02 07:19:09;;;;;;;1.00;0.80;;;27.40;92.10;;;;;;5042783;28;20040;-84
2022/07/02 07:21:36;;;;;;;0.90;0.60;;;27.60;91.90;;;;;;5018882;28;20049;-84
2022/07/02 07:24:02;;;;;;;0.20;0.20;;;28.00;91.60;;;;;;5036483;28;20453;-85
2022/07/02 07:26:28;;;;;;;0.20;0.20;;;27.80;91.30;;;;;;5004096;28;20447;-85
2022/07/02 07:28:54;;;;;;;0.20;0.20;;;28.00;91.50;;;;;;5020805;28;20080;-84
2022/07/02 07:31:20;;;;;;;0.25;0.20;;;27.80;91.70;;;;;;5037652;28;20072;-85
2022/07/02 07:33:46;;;;;;;0.70;0.70;;;27.30;90.90;;;;;;5036782;28;20098;-83
2022/07/02 07:36:12;;;;;;;0.25;0.20;;;27.20;91.70;;;;;;5020556;28;20104;-83
2022/07/02 07:38:39;;;;;;;0.17;0.17;;;27.50;91.00;;;;;;5036632;28;20079;-83
2022/07/02 07:41:04;;;;;;;1.08;0.47;;;28.10;90.90;;;;;;5033743;28;20079;-83
2022/07/02 07:43:30;;;;;;;0.30;0.30;;;28.30;89.80;;;;;;5040616;28;20041;-83
2022/07/02 07:45:56;;;;;;;0.30;0.30;;;28.30;89.00;;;;;;5016952;28;20057;-83
2022/07/02 07:48:22;;;;;;;0.10;0.10;;;28.10;89.80;;;;;;5033383;28;20052;-83
2022/07/02 07:50:48;;;;;;;0.40;0.40;;;28.30;90.20;;;;;;5000976;28;20037;-83
2022/07/02 07:53:13;;;;;;;0.15;0.15;;;28.80;89.50;;;;;;5031367;28;20130;-83
2022/07/02 07:55:39;;;;;;;0.30;0.30;;;29.10;88.90;;;;;;4965805;28;20168;-83
2022/07/02 07:58:05;;;;;;;0.10;0.10;;;29.40;88.30;;;;;;5038032;28;20040;-83
2022/07/02 08:00:31;;;;;;;0.20;0.20;;;29.60;86.60;;;;;;5027958;28;20395;-82
2022/07/02 08:02:57;;;;;;;0.55;0.43;;;30.00;86.70;;;;;;5017409;28;20045;-82
2022/07/02 08:05:23;;;;;;;0.10;0.10;;;30.20;84.90;;;;;;5030495;28;20109;-83
2022/07/02 08:07:49;;;;;;;0.10;0.10;;;30.30;85.10;;;;;;5032766;28;20037;-83
2022/07/02 08:10:15;;;;;;;0.10;0.10;;;30.30;85.90;;;;;;5032810;28;20103;-83
2022/07/02 08:12:41;;;;;;;0.20;0.20;;;29.30;85.20;;;;;;5032951;28;20049;-83
2022/07/02 08:15:08;;;;;;;0.10;0.10;;;28.70;87.00;;;;;;5015288;28;20043;-82
2022/07/02 08:17:34;;;;;;;0.15;0.15;;;29.10;85.30;;;;;;5049916;28;20076;-83
2022/07/02 08:20:02;;;;;;;0.05;0.05;;;29.30;85.70;;;;;;5049211;28;20037;-83
2022/07/02 08:22:28;;;;;;;0.00;0.00;;;29.40;85.40;;;;;;5017016;28;20037;-83
2022/07/02 08:24:53;;;;;;;0.30;0.22;;;30.00;85.40;;;;;;5031483;28;20120;-83
2022/07/02 08:27:19;;;;;;;0.20;0.20;;;30.80;86.30;;;;;;5030280;28;20042;-82
2022/07/02 08:29:45;;;;;;;0.28;0.28;;;31.10;83.50;;;;;;5032837;28;20045;-83
2022/07/02 08:32:11;;;;;;;0.10;0.10;;;31.40;82.20;;;;;;5016399;28;20041;-83
2022/07/02 08:34:37;;;;;;;0.13;0.13;;;31.40;78.60;;;;;;5032552;28;20033;-83
2022/07/02 08:37:03;;;;;;;0.25;0.20;;;31.50;78.30;;;;;;5016574;28;20435;-82
2022/07/02 08:39:29;;;;;;;0.10;0.10;;;31.60;77.20;;;;;;5015876;28;20037;-85
2022/07/02 08:41:57;;;;;;;0.10;0.10;;;31.90;78.50;;;;;;5032269;28;20053;-85
2022/07/02 08:44:25;;;;;;;0.30;0.30;;;31.90;76.40;;;;;;5032257;28;20061;-85
2022/07/02 08:46:51;;;;;;;0.15;0.15;;;32.10;76.10;;;;;;5032765;28;20041;-85
2022/07/02 08:49:21;;;;;;;0.10;0.10;;;31.80;75.00;;;;;;5016519;28;20176;-84
2022/07/02 08:54:26;;;;;;;0.13;0.13;;;31.70;77.00;;;;;;5031056;28;20056;-84
2022/07/02 08:56:54;;;;;;;0.05;0.05;;;31.80;74.80;;;;;;5015365;28;20038;-84
2022/07/02 08:59:20;;;;;;;0.10;0.10;;;32.00;74.40;;;;;;5029742;28;20045;-85
2022/07/02 09:01:47;;;;;;;0.10;0.10;;;32.10;72.60;;;;;;5031588;28;20049;-84
2022/07/02 09:04:15;;;;;;;0.38;0.38;;;32.20;73.80;;;;;;5014517;28;20499;-85
2022/07/02 09:06:43;;;;;;;0.20;0.20;;;32.40;73.70;;;;;;5049361;28;20047;-85
2022/07/02 09:09:09;;;;;;;0.10;0.10;;;32.50;73.50;;;;;;5027760;28;20046;-85
2022/07/02 09:11:35;;;;;;;0.10;0.10;;;32.70;72.10;;;;;;5024420;28;20052;-85
2022/07/02 09:14:02;;;;;;;0.10;0.10;;;33.00;71.40;;;;;;5032387;28;20046;-85
2022/07/02 09:16:28;;;;;;;0.10;0.10;;;32.70;69.20;;;;;;5029237;28;20471;-85
2022/07/02 09:18:54;;;;;;;0.30;0.30;;;32.60;68.10;;;;;;5053872;28;20041;-86
2022/07/02 09:21:20;;;;;;;0.20;0.20;;;32.70;67.70;;;;;;5026325;28;20504;-86
2022/07/02 09:23:47;;;;;;;0.10;0.10;;;32.60;66.40;;;;;;4999846;28;20069;-86
2022/07/02 09:26:20;;;;;;;0.00;0.00;;;32.30;64.50;;;;;;5012850;28;20345;-86
2022/07/02 09:29:00;;;;;;;0.10;0.10;;;31.90;64.90;;;;;;5016131;28;20109;-85
2022/07/02 09:31:27;;;;;;;0.05;0.05;;;32.00;66.10;;;;;;5033444;28;20402;-86
2022/07/02 09:33:53;;;;;;;0.63;0.30;;;31.80;65.50;;;;;;5036044;28;20438;-85
2022/07/02 09:36:19;;;;;;;0.10;0.10;;;31.10;65.30;;;;;;5036088;28;20041;-85
2022/07/02 09:38:47;;;;;;;0.05;0.05;;;31.50;65.60;;;;;;5001995;28;20041;-85
2022/07/02 09:41:15;;;;;;;0.10;0.10;;;31.70;65.70;;;;;;5014712;28;20042;-85
2022/07/02 09:43:41;;;;;;;0.10;0.10;;;32.20;65.70;;;;;;5013899;23;20049;-83
2022/07/02 09:46:15;;;;;;;0.57;0.45;;;32.60;66.20;;;;;;5035231;28;20116;-84
2022/07/02 09:48:42;;;;;;;0.00;0.00;;;32.80;63.80;;;;;;5035821;28;20120;-84
2022/07/02 09:51:07;;;;;;;0.05;0.05;;;32.70;63.70;;;;;;5052772;28;20044;-84
2022/07/02 09:53:33;;;;;;;0.20;0.20;;;32.60;63.40;;;;;;5053925;28;20041;-84
2022/07/02 09:56:02;;;;;;;0.10;0.10;;;32.70;64.00;;;;;;5034286;28;20033;-84
2022/07/02 09:58:31;;;;;;;0.10;0.10;;;32.50;63.50;;;;;;5037697;28;20037;-84
2022/07/02 10:01:03;;;;;;;0.10;0.10;;;32.30;63.10;;;;;;5054557;28;20032;-83
2022/07/02 10:03:29;;;;;;;0.10;0.10;;;32.20;63.20;;;;;;5054917;28;20045;-85
2022/07/02 10:05:56;;;;;;;0.10;0.10;;;32.30;64.10;;;;;;5054567;28;20052;-86
2022/07/02 10:08:22;;;;;;;0.20;0.20;;;32.00;62.80;;;;;;5053441;28;20049;-86
2022/07/02 10:10:48;;;;;;;0.30;0.30;;;31.90;62.90;;;;;;5054332;28;20048;-85
2022/07/02 10:13:16;;;;;;;0.20;0.20;;;31.70;62.30;;;;;;5056006;28;20444;-86
2022/07/02 10:15:51;;;;;;;0.00;0.00;;;32.00;63.30;;;;;;5055365;28;20041;-85
2022/07/02 10:18:18;;;;;;;0.10;0.10;;;32.30;62.60;;;;;;5040444;28;20041;-86
2022/07/02 10:20:44;;;;;;;0.10;0.10;;;32.50;61.00;;;;;;5032570;28;20512;-85
2022/07/02 10:23:12;;;;;;;0.10;0.10;;;32.30;61.20;;;;;;5018670;28;20148;-85
2022/07/02 10:25:39;;;;;;;0.20;0.20;;;32.20;60.90;;;;;;5034961;28;20078;-85
2022/07/02 10:28:05;;;;;;;0.10;0.10;;;32.20;60.80;;;;;;5043869;28;20036;-84
2022/07/02 10:30:31;;;;;;;0.03;0.03;;;32.40;62.70;;;;;;5053468;28;20037;-85
2022/07/02 10:33:01;;;;;;;0.20;0.20;;;32.50;61.70;;;;;;5038290;28;20054;-85
2022/07/02 10:35:28;;;;;;;0.10;0.10;;;32.20;61.00;;;;;;5055224;28;20446;-85
2022/07/02 10:37:59;;;;;;;0.25;0.25;;;31.70;60.40;;;;;;5054816;28;20041;-85
2022/07/02 10:40:25;;;;;;;0.30;0.30;;;31.40;61.10;;;;;;5021040;28;20036;-85
2022/07/02 10:42:53;;;;;;;0.05;0.05;;;31.90;61.50;;;;;;5032462;28;20040;-85
2022/07/02 10:45:21;;;;;;;0.00;0.00;;;32.20;60.60;;;;;;5054394;28;20114;-85
2022/07/02 10:47:56;;;;;;;0.10;0.10;;;32.20;59.50;;;;;;5053337;28;20048;-85
2022/07/02 10:50:26;;;;;;;0.20;0.20;;;32.30;60.30;;;;;;5070461;28;20041;-85
2022/07/02 10:52:53;;;;;;;0.10;0.10;;;32.50;61.10;;;;;;5052379;28;20041;-85
2022/07/02 10:55:59;;;;;;;0.10;0.10;;;32.50;59.80;;;;;;5054579;28;20550;-86
2022/07/02 10:58:29;;;;;;;0.10;0.10;;;32.60;59.40;;;;;;5036917;28;20511;-85
2022/07/02 11:01:11;;;;;;;0.10;0.10;;;32.60;61.00;;;;;;5042271;28;20116;-85
2022/07/02 11:03:37;;;;;;;0.45;0.45;;;32.70;59.40;;;;;;5036794;28;20079;-86
2022/07/02 11:06:05;;;;;;;0.10;0.10;;;32.70;59.40;;;;;;5037855;28;20055;-84
2022/07/02 11:08:48;;;;;;;0.28;0.28;;;32.50;58.70;;;;;;5054314;28;20041;-83
2022/07/02 11:11:22;;;;;;;0.10;0.10;;;32.10;60.10;;;;;;5024203;28;20033;-83
2022/07/02 11:13:55;;;;;;;0.40;0.40;;;31.50;59.90;;;;;;5053171;28;20387;-83
2022/07/02 11:16:48;;;;;;;0.00;0.00;;;31.50;61.10;;;;;;5037952;28;20079;-84
2022/07/02 11:19:20;;;;;;;0.00;0.00;;;31.70;61.20;;;;;;5029359;28;20119;-83
2022/07/02 11:21:47;;;;;;;0.03;0.03;;;31.80;60.50;;;;;;5053867;28;20110;-83
2022/07/02 11:24:19;;;;;;;0.10;0.10;;;31.80;60.70;;;;;;5051679;28;20134;-83
2022/07/02 11:26:45;;;;;;;0.10;0.10;;;32.30;61.60;;;;;;5053742;28;20372;-81
2022/07/02 11:29:12;;;;;;;0.10;0.10;;;32.40;58.80;;;;;;5035525;28;20100;-81
2022/07/02 11:31:46;;;;;;;0.10;0.10;;;32.40;58.80;;;;;;5069489;28;20763;-81
2022/07/02 11:34:30;;;;;;;0.15;0.15;;;32.40;59.30;;;;;;5053173;28;20052;-80
2022/07/02 11:36:56;;;;;;;0.10;0.10;;;32.20;58.70;;;;;;5053687;28;20045;-81
2022/07/02 11:39:24;;;;;;;0.00;0.00;;;31.80;59.40;;;;;;5036331;28;20107;-81
2022/07/02 11:41:51;;;;;;;0.00;0.00;;;31.60;59.90;;;;;;5025564;28;20041;-81
2022/07/02 11:44:19;;;;;;;0.22;0.22;;;31.80;60.00;;;;;;5043188;28;20053;-83
2022/07/02 11:46:53;;;;;;;0.20;0.20;;;31.80;58.40;;;;;;5047243;28;20049;-83
2022/07/02 11:49:22;;;;;;;0.10;0.10;;;31.90;59.50;;;;;;5044376;28;20037;-83
2022/07/02 11:51:49;;;;;;;0.15;0.10;;;31.50;58.50;;;;;;5053555;28;20091;-82
2022/07/02 11:54:15;;;;;;;0.10;0.10;;;30.90;59.20;;;;;;5036114;28;20036;-83
2022/07/02 11:56:43;;;;;;;0.13;0.13;;;30.60;59.40;;;;;;5052601;28;20041;-83
2022/07/02 11:59:10;;;;;;;0.17;0.17;;;30.80;60.90;;;;;;5033676;28;20094;-84
2022/07/02 12:01:38;;;;;;;0.10;0.10;;;31.00;60.30;;;;;;5045466;28;20045;-83
2022/07/02 12:04:07;;;;;;;0.10;0.10;;;31.30;58.20;;;;;;5052854;28;20090;-83
2022/07/02 12:06:37;;;;;;;0.10;0.10;;;31.40;59.70;;;;;;5053007;28;20122;-82
2022/07/02 12:09:08;;;;;;;0.10;0.10;;;31.50;59.80;;;;;;5052186;28;20047;-84
2022/07/02 12:11:42;;;;;;;0.00;0.00;;;31.80;59.00;;;;;;5051067;28;20067;-84
2022/07/02 12:14:10;;;;;;;0.10;0.10;;;31.30;57.80;;;;;;5034395;28;20081;-85
2022/07/02 12:16:36;;;;;;;0.00;0.00;;;31.20;59.10;;;;;;5052592;28;20123;-86
2022/07/02 12:19:08;;;;;;;0.32;0.32;;;31.10;58.80;;;;;;5035659;28;20068;-86
2022/07/02 12:21:36;;;;;;;0.10;0.10;;;31.40;59.20;;;;;;5052871;28;20395;-86
2022/07/02 12:24:08;;;;;;;0.75;0.75;;;31.40;57.00;;;;;;5051694;28;20041;-86
2022/07/02 12:26:34;;;;;;;0.47;0.47;;;30.90;56.50;;;;;;5034484;28;20040;-86
2022/07/02 12:31:54;;;;;;;0.10;0.10;;;30.30;58.00;;;;;;5052210;28;20088;-86
2022/07/02 12:34:23;;;;;;;0.10;0.10;;;29.10;59.00;;;;;;5046865;28;20033;-83
2022/07/02 12:36:55;;;;;;;0.13;0.13;;;28.20;59.40;;;;;;5044135;28;20044;-83
2022/07/02 12:39:23;;;;;;;0.10;0.10;;;27.40;61.60;;;;;;5051048;28;20532;-82
2022/07/02 12:41:49;;;;;;;0.08;0.08;;;27.30;61.50;;;;;;5050811;28;20108;-82
2022/07/02 12:44:16;;;;;;;0.13;0.13;;;27.60;62.10;;;;;;5041281;28;20614;-83
2022/07/02 12:46:47;;;;;;;0.10;0.10;;;28.00;62.80;;;;;;5042086;28;20483;-82
2022/07/02 12:49:17;;;;;;;0.28;0.28;;;27.90;61.80;;;;;;5033829;28;20427;-82
2022/07/02 12:52:02;;;;;;;0.00;0.00;;;27.50;61.40;;;;;;5035423;28;20033;-86
2022/07/02 12:54:39;;;;;;;0.17;0.17;;;27.20;63.10;;;;;;5042913;28;20067;-86
2022/07/02 12:57:13;;;;;;;0.10;0.10;;;27.30;63.30;;;;;;5050317;28;20040;-86